sensor_id;sensor_type;location;lat;lon;timestamp;P1;durP1;ratioP1;P2;durP2;ratioP2
69951;SDS011;60406;48.408;13.392;2024-01-10T00:03:18;20.17;;;10.05;;
69951;SDS011;60406;48.408;13.392;2024-01-10T00:08:19;20.65;;;9.60;;
69951;SDS011;60406;48.408;13.392;2024-01-10T00:13:20;21.42;;;10.32;;
69951;SDS011;60406;48.408;13.392;2024-01-10T00:18:21;23.42;;;9.52;;
69951;SDS011;60406;48.408;13.392;2024-01-10T00:23:22;21.50;;;10.15;;
69951;SDS011;60406;48.408;13.392;2024-01-10T00:28:23;21.92;;;9.43;;
69951;SDS011;60406;48.408;13.392;2024-01-10T00:33:25;20.02;;;9.30;;
69951;SDS011;60406;48.408;13.392;2024-01-10T00:38:26;17.50;;;8.65;;
69951;SDS011;60406;48.408;13.392;2024-01-10T00:43:27;24.23;;;9.20;;
69951;SDS011;60406;48.408;13.392;2024-01-10T00:48:28;23.00;;;9.63;;
69951;SDS011;60406;48.408;13.392;2024-01-10T00:53:29;19.77;;;10.35;;
69951;SDS011;60406;48.408;13.392;2024-01-10T00:58:29;21.42;;;9.75;;
69951;SDS011;60406;48.408;13.392;2024-01-10T01:03:30;21.90;;;10.35;;
69951;SDS011;60406;48.408;13.392;2024-01-10T01:08:31;21.17;;;8.98;;
69951;SDS011;60406;48.408;13.392;2024-01-10T01:13:32;20.48;;;9.60;;
69951;SDS011;60406;48.408;13.392;2024-01-10T01:18:33;23.67;;;10.75;;
69951;SDS011;60406;48.408;13.392;2024-01-10T01:23:34;23.77;;;11.45;;
69951;SDS011;60406;48.408;13.392;2024-01-10T01:28:35;16.63;;;9.82;;
69951;SDS011;60406;48.408;13.392;2024-01-10T01:33:36;24.17;;;9.95;;
69951;SDS011;60406;48.408;13.392;2024-01-10T01:38:37;20.70;;;9.65;;
69951;SDS011;60406;48.408;13.392;2024-01-10T01:43:38;21.17;;;9.98;;
69951;SDS011;60406;48.408;13.392;2024-01-10T01:48:39;19.67;;;9.32;;
69951;SDS011;60406;48.408;13.392;2024-01-10T01:53:40;23.30;;;10.68;;
69951;SDS011;60406;48.408;13.392;2024-01-10T01:58:41;23.20;;;10.63;;
69951;SDS011;60406;48.408;13.392;2024-01-10T02:03:43;24.23;;;10.80;;
69951;SDS011;60406;48.408;13.392;2024-01-10T02:08:44;21.58;;;9.88;;
69951;SDS011;60406;48.408;13.392;2024-01-10T02:13:45;25.33;;;11.75;;
69951;SDS011;60406;48.408;13.392;2024-01-10T02:18:46;31.65;;;10.52;;
69951;SDS011;60406;48.408;13.392;2024-01-10T02:23:47;21.48;;;10.05;;
69951;SDS011;60406;48.408;13.392;2024-01-10T02:28:47;19.95;;;9.70;;
69951;SDS011;60406;48.408;13.392;2024-01-10T02:33:48;27.52;;;11.43;;
69951;SDS011;60406;48.408;13.392;2024-01-10T02:38:49;23.23;;;12.38;;
69951;SDS011;60406;48.408;13.392;2024-01-10T02:43:50;24.80;;;10.63;;
69951;SDS011;60406;48.408;13.392;2024-01-10T02:48:51;23.45;;;12.30;;
69951;SDS011;60406;48.408;13.392;2024-01-10T02:53:52;27.75;;;12.40;;
69951;SDS011;60406;48.408;13.392;2024-01-10T02:58:53;25.13;;;12.35;;
69951;SDS011;60406;48.408;13.392;2024-01-10T03:03:54;31.45;;;12.57;;
69951;SDS011;60406;48.408;13.392;2024-01-10T03:08:55;28.50;;;12.65;;
69951;SDS011;60406;48.408;13.392;2024-01-10T03:14:29;24.02;;;12.07;;
69951;SDS011;60406;48.408;13.392;2024-01-10T03:19:23;27.08;;;12.43;;
69951;SDS011;60406;48.408;13.392;2024-01-10T03:24:24;23.95;;;11.35;;
69951;SDS011;60406;48.408;13.392;2024-01-10T03:29:24;23.65;;;11.13;;
69951;SDS011;60406;48.408;13.392;2024-01-10T03:34:25;25.52;;;12.10;;
69951;SDS011;60406;48.408;13.392;2024-01-10T03:39:26;27.80;;;11.85;;
69951;SDS011;60406;48.408;13.392;2024-01-10T03:44:27;28.80;;;13.80;;
69951;SDS011;60406;48.408;13.392;2024-01-10T03:49:28;24.67;;;11.95;;
69951;SDS011;60406;48.408;13.392;2024-01-10T03:54:29;29.00;;;13.27;;
69951;SDS011;60406;48.408;13.392;2024-01-10T03:59:30;35.90;;;15.73;;
69951;SDS011;60406;48.408;13.392;2024-01-10T04:04:31;36.33;;;15.15;;
69951;SDS011;60406;48.408;13.392;2024-01-10T04:09:32;24.23;;;11.88;;
69951;SDS011;60406;48.408;13.392;2024-01-10T04:14:33;28.50;;;12.38;;
69951;SDS011;60406;48.408;13.392;2024-01-10T04:19:33;24.75;;;13.32;;
69951;SDS011;60406;48.408;13.392;2024-01-10T04:24:34;29.95;;;11.77;;
69951;SDS011;60406;48.408;13.392;2024-01-10T04:29:35;31.90;;;14.65;;
69951;SDS011;60406;48.408;13.392;2024-01-10T04:34:36;47.67;;;17.92;;
69951;SDS011;60406;48.408;13.392;2024-01-10T04:39:37;54.65;;;19.67;;
69951;SDS011;60406;48.408;13.392;2024-01-10T04:44:38;43.90;;;16.38;;
69951;SDS011;60406;48.408;13.392;2024-01-10T04:49:39;34.85;;;16.92;;
69951;SDS011;60406;48.408;13.392;2024-01-10T04:54:40;45.25;;;18.00;;
69951;SDS011;60406;48.408;13.392;2024-01-10T04:59:41;31.60;;;14.50;;
69951;SDS011;60406;48.408;13.392;2024-01-10T05:04:41;25.98;;;12.57;;
69951;SDS011;60406;48.408;13.392;2024-01-10T05:09:42;27.90;;;12.88;;
69951;SDS011;60406;48.408;13.392;2024-01-10T05:14:43;34.63;;;14.65;;
69951;SDS011;60406;48.408;13.392;2024-01-10T05:19:44;27.48;;;13.52;;
69951;SDS011;60406;48.408;13.392;2024-01-10T05:24:45;34.53;;;14.93;;
69951;SDS011;60406;48.408;13.392;2024-01-10T05:29:46;29.55;;;14.10;;
69951;SDS011;60406;48.408;13.392;2024-01-10T05:34:47;31.50;;;15.82;;
69951;SDS011;60406;48.408;13.392;2024-01-10T05:39:47;39.80;;;15.48;;
69951;SDS011;60406;48.408;13.392;2024-01-10T05:44:48;34.65;;;15.95;;
69951;SDS011;60406;48.408;13.392;2024-01-10T05:49:49;29.10;;;15.20;;
69951;SDS011;60406;48.408;13.392;2024-01-10T05:54:50;33.83;;;14.15;;
69951;SDS011;60406;48.408;13.392;2024-01-10T05:59:51;39.45;;;14.38;;
69951;SDS011;60406;48.408;13.392;2024-01-10T06:04:52;33.60;;;15.65;;
69951;SDS011;60406;48.408;13.392;2024-01-10T06:09:53;34.58;;;17.13;;
69951;SDS011;60406;48.408;13.392;2024-01-10T06:14:54;37.78;;;17.63;;
69951;SDS011;60406;48.408;13.392;2024-01-10T06:19:55;46.15;;;19.77;;
69951;SDS011;60406;48.408;13.392;2024-01-10T06:24:56;36.97;;;17.08;;
69951;SDS011;60406;48.408;13.392;2024-01-10T06:29:57;38.70;;;16.60;;
69951;SDS011;60406;48.408;13.392;2024-01-10T06:34:58;31.73;;;15.95;;
69951;SDS011;60406;48.408;13.392;2024-01-10T06:39:58;39.95;;;19.90;;
69951;SDS011;60406;48.408;13.392;2024-01-10T06:44:59;44.40;;;22.13;;
69951;SDS011;60406;48.408;13.392;2024-01-10T06:50:00;51.08;;;22.42;;
69951;SDS011;60406;48.408;13.392;2024-01-10T06:55:01;45.65;;;23.60;;
69951;SDS011;60406;48.408;13.392;2024-01-10T07:00:02;82.43;;;39.17;;
69951;SDS011;60406;48.408;13.392;2024-01-10T07:05:07;55.75;;;29.13;;
69951;SDS011;60406;48.408;13.392;2024-01-10T07:10:08;45.10;;;23.17;;
69951;SDS011;60406;48.408;13.392;2024-01-10T07:15:10;53.50;;;23.45;;
69951;SDS011;60406;48.408;13.392;2024-01-10T07:20:11;49.83;;;22.30;;
69951;SDS011;60406;48.408;13.392;2024-01-10T07:25:12;47.63;;;24.55;;
69951;SDS011;60406;48.408;13.392;2024-01-10T07:30:13;44.90;;;21.35;;
69951;SDS011;60406;48.408;13.392;2024-01-10T07:35:14;43.17;;;21.02;;
69951;SDS011;60406;48.408;13.392;2024-01-10T07:40:14;42.53;;;22.38;;
69951;SDS011;60406;48.408;13.392;2024-01-10T07:45:15;46.42;;;22.30;;
69951;SDS011;60406;48.408;13.392;2024-01-10T07:50:16;52.15;;;24.23;;
69951;SDS011;60406;48.408;13.392;2024-01-10T07:55:17;54.50;;;28.77;;
69951;SDS011;60406;48.408;13.392;2024-01-10T08:00:18;53.83;;;28.83;;
69951;SDS011;60406;48.408;13.392;2024-01-10T08:05:19;45.38;;;23.25;;
69951;SDS011;60406;48.408;13.392;2024-01-10T08:10:20;48.50;;;22.48;;
69951;SDS011;60406;48.408;13.392;2024-01-10T08:15:21;56.50;;;23.45;;
69951;SDS011;60406;48.408;13.392;2024-01-10T08:20:21;54.78;;;27.67;;
69951;SDS011;60406;48.408;13.392;2024-01-10T08:25:22;51.97;;;25.10;;
69951;SDS011;60406;48.408;13.392;2024-01-10T08:30:23;46.15;;;23.45;;
69951;SDS011;60406;48.408;13.392;2024-01-10T08:35:24;53.00;;;24.17;;
69951;SDS011;60406;48.408;13.392;2024-01-10T08:40:25;49.65;;;25.50;;
69951;SDS011;60406;48.408;13.392;2024-01-10T08:45:26;48.90;;;25.67;;
69951;SDS011;60406;48.408;13.392;2024-01-10T08:50:27;64.80;;;35.72;;
69951;SDS011;60406;48.408;13.392;2024-01-10T08:55:28;52.47;;;28.88;;
69951;SDS011;60406;48.408;13.392;2024-01-10T09:00:29;69.47;;;32.47;;
69951;SDS011;60406;48.408;13.392;2024-01-10T09:05:30;51.95;;;24.13;;
69951;SDS011;60406;48.408;13.392;2024-01-10T09:10:31;44.58;;;22.75;;
69951;SDS011;60406;48.408;13.392;2024-01-10T09:15:32;51.95;;;26.58;;
69951;SDS011;60406;48.408;13.392;2024-01-10T09:20:34;48.83;;;23.33;;
69951;SDS011;60406;48.408;13.392;2024-01-10T09:25:35;49.40;;;24.65;;
69951;SDS011;60406;48.408;13.392;2024-01-10T09:30:36;44.78;;;22.92;;
69951;SDS011;60406;48.408;13.392;2024-01-10T09:35:36;44.60;;;21.80;;
69951;SDS011;60406;48.408;13.392;2024-01-10T09:40:37;50.20;;;25.00;;
69951;SDS011;60406;48.408;13.392;2024-01-10T09:45:42;54.42;;;25.67;;
69951;SDS011;60406;48.408;13.392;2024-01-10T09:50:44;51.88;;;25.45;;
69951;SDS011;60406;48.408;13.392;2024-01-10T09:55:45;48.78;;;24.58;;
69951;SDS011;60406;48.408;13.392;2024-01-10T10:00:46;50.70;;;24.85;;
69951;SDS011;60406;48.408;13.392;2024-01-10T10:05:47;46.25;;;24.20;;
69951;SDS011;60406;48.408;13.392;2024-01-10T10:10:48;52.67;;;25.90;;
69951;SDS011;60406;48.408;13.392;2024-01-10T10:15:59;51.03;;;25.23;;
69951;SDS011;60406;48.408;13.392;2024-01-10T10:21:07;45.45;;;24.15;;
69951;SDS011;60406;48.408;13.392;2024-01-10T10:26:14;51.95;;;24.15;;
69951;SDS011;60406;48.408;13.392;2024-01-10T10:31:16;57.80;;;22.85;;
69951;SDS011;60406;48.408;13.392;2024-01-10T10:36:18;80.30;;;26.30;;
69951;SDS011;60406;48.408;13.392;2024-01-10T10:41:19;46.88;;;25.10;;
69951;SDS011;60406;48.408;13.392;2024-01-10T10:46:20;47.40;;;24.48;;
69951;SDS011;60406;48.408;13.392;2024-01-10T10:56:29;50.72;;;24.58;;
69951;SDS011;60406;48.408;13.392;2024-01-10T11:01:31;43.25;;;22.77;;
69951;SDS011;60406;48.408;13.392;2024-01-10T11:06:32;53.60;;;24.38;;
69951;SDS011;60406;48.408;13.392;2024-01-10T11:17:02;51.42;;;24.17;;
69951;SDS011;60406;48.408;13.392;2024-01-10T11:28:20;54.10;;;37.78;;
69951;SDS011;60406;48.408;13.392;2024-01-10T11:33:21;52.03;;;27.23;;
69951;SDS011;60406;48.408;13.392;2024-01-10T11:38:24;51.42;;;31.85;;
69951;SDS011;60406;48.408;13.392;2024-01-10T11:43:28;71.22;;;41.63;;
69951;SDS011;60406;48.408;13.392;2024-01-10T11:48:29;46.00;;;29.38;;
69951;SDS011;60406;48.408;13.392;2024-01-10T11:53:38;60.13;;;33.72;;
69951;SDS011;60406;48.408;13.392;2024-01-10T11:58:52;109.68;;;64.05;;
69951;SDS011;60406;48.408;13.392;2024-01-10T12:03:57;55.78;;;32.92;;
69951;SDS011;60406;48.408;13.392;2024-01-10T12:08:58;43.25;;;27.98;;
69951;SDS011;60406;48.408;13.392;2024-01-10T12:13:59;117.95;;;32.40;;
69951;SDS011;60406;48.408;13.392;2024-01-10T12:19:00;45.72;;;26.40;;
69951;SDS011;60406;48.408;13.392;2024-01-10T12:24:27;100.00;;;30.55;;
69951;SDS011;60406;48.408;13.392;2024-01-10T12:29:28;68.28;;;25.88;;
69951;SDS011;60406;48.408;13.392;2024-01-10T12:34:29;46.45;;;27.02;;
69951;SDS011;60406;48.408;13.392;2024-01-10T12:39:30;44.47;;;25.50;;
69951;SDS011;60406;48.408;13.392;2024-01-10T12:44:31;40.28;;;26.90;;
69951;SDS011;60406;48.408;13.392;2024-01-10T12:49:31;38.85;;;26.05;;
69951;SDS011;60406;48.408;13.392;2024-01-10T12:54:32;40.28;;;26.27;;
69951;SDS011;60406;48.408;13.392;2024-01-10T12:59:33;44.17;;;24.70;;
69951;SDS011;60406;48.408;13.392;2024-01-10T13:04:34;36.65;;;24.35;;
69951;SDS011;60406;48.408;13.392;2024-01-10T13:09:35;39.65;;;27.33;;
69951;SDS011;60406;48.408;13.392;2024-01-10T13:14:40;43.00;;;26.23;;
69951;SDS011;60406;48.408;13.392;2024-01-10T13:19:41;36.83;;;25.55;;
69951;SDS011;60406;48.408;13.392;2024-01-10T13:24:42;36.13;;;25.77;;
69951;SDS011;60406;48.408;13.392;2024-01-10T13:29:42;60.78;;;26.77;;
69951;SDS011;60406;48.408;13.392;2024-01-10T13:34:43;68.50;;;42.75;;
69951;SDS011;60406;48.408;13.392;2024-01-10T13:39:44;108.63;;;80.38;;
69951;SDS011;60406;48.408;13.392;2024-01-10T13:44:45;65.07;;;46.95;;
69951;SDS011;60406;48.408;13.392;2024-01-10T13:49:46;157.25;;;99.43;;
69951;SDS011;60406;48.408;13.392;2024-01-10T13:54:47;288.17;;;201.48;;
69951;SDS011;60406;48.408;13.392;2024-01-10T13:59:48;82.10;;;55.35;;
69951;SDS011;60406;48.408;13.392;2024-01-10T14:04:48;135.93;;;90.10;;
69951;SDS011;60406;48.408;13.392;2024-01-10T14:09:50;68.38;;;49.80;;
69951;SDS011;60406;48.408;13.392;2024-01-10T14:14:51;59.03;;;37.08;;
69951;SDS011;60406;48.408;13.392;2024-01-10T14:19:52;190.68;;;116.85;;
69951;SDS011;60406;48.408;13.392;2024-01-10T14:24:53;203.55;;;101.75;;
69951;SDS011;60406;48.408;13.392;2024-01-10T14:29:53;152.02;;;84.28;;
69951;SDS011;60406;48.408;13.392;2024-01-10T14:34:54;137.38;;;70.20;;
69951;SDS011;60406;48.408;13.392;2024-01-10T14:39:56;83.60;;;44.10;;
69951;SDS011;60406;48.408;13.392;2024-01-10T14:44:56;93.15;;;56.33;;
69951;SDS011;60406;48.408;13.392;2024-01-10T14:49:57;51.03;;;31.05;;
69951;SDS011;60406;48.408;13.392;2024-01-10T14:54:58;46.10;;;28.40;;
69951;SDS011;60406;48.408;13.392;2024-01-10T14:59:59;45.90;;;29.85;;
69951;SDS011;60406;48.408;13.392;2024-01-10T15:05:00;63.75;;;36.33;;
69951;SDS011;60406;48.408;13.392;2024-01-10T15:10:01;53.35;;;28.85;;
69951;SDS011;60406;48.408;13.392;2024-01-10T15:15:02;53.42;;;27.83;;
69951;SDS011;60406;48.408;13.392;2024-01-10T15:20:03;57.42;;;28.92;;
69951;SDS011;60406;48.408;13.392;2024-01-10T15:25:04;65.72;;;36.22;;
69951;SDS011;60406;48.408;13.392;2024-01-10T15:30:06;70.63;;;34.67;;
69951;SDS011;60406;48.408;13.392;2024-01-10T15:35:07;77.63;;;33.15;;
69951;SDS011;60406;48.408;13.392;2024-01-10T15:40:08;79.38;;;35.05;;
69951;SDS011;60406;48.408;13.392;2024-01-10T15:45:13;68.82;;;34.58;;
69951;SDS011;60406;48.408;13.392;2024-01-10T15:50:14;93.15;;;46.88;;
69951;SDS011;60406;48.408;13.392;2024-01-10T15:55:15;63.65;;;31.90;;
69951;SDS011;60406;48.408;13.392;2024-01-10T16:00:16;55.88;;;30.27;;
69951;SDS011;60406;48.408;13.392;2024-01-10T16:05:17;75.38;;;34.60;;
69951;SDS011;60406;48.408;13.392;2024-01-10T16:10:18;91.57;;;46.38;;
69951;SDS011;60406;48.408;13.392;2024-01-10T16:15:19;76.15;;;38.20;;
69951;SDS011;60406;48.408;13.392;2024-01-10T16:20:20;57.50;;;28.80;;
69951;SDS011;60406;48.408;13.392;2024-01-10T16:25:21;120.47;;;53.42;;
69951;SDS011;60406;48.408;13.392;2024-01-10T16:30:21;105.60;;;50.65;;
69951;SDS011;60406;48.408;13.392;2024-01-10T16:35:22;86.25;;;42.85;;
69951;SDS011;60406;48.408;13.392;2024-01-10T16:40:23;78.40;;;39.58;;
69951;SDS011;60406;48.408;13.392;2024-01-10T16:45:24;82.65;;;44.92;;
69951;SDS011;60406;48.408;13.392;2024-01-10T16:50:25;85.38;;;43.58;;
69951;SDS011;60406;48.408;13.392;2024-01-10T16:55:26;96.32;;;49.38;;
69951;SDS011;60406;48.408;13.392;2024-01-10T17:00:27;100.97;;;46.92;;
69951;SDS011;60406;48.408;13.392;2024-01-10T17:05:28;92.43;;;47.00;;
69951;SDS011;60406;48.408;13.392;2024-01-10T17:10:29;77.88;;;40.65;;
69951;SDS011;60406;48.408;13.392;2024-01-10T17:15:30;75.88;;;38.90;;
69951;SDS011;60406;48.408;13.392;2024-01-10T17:20:30;73.55;;;39.58;;
69951;SDS011;60406;48.408;13.392;2024-01-10T17:25:31;77.65;;;40.25;;
69951;SDS011;60406;48.408;13.392;2024-01-10T17:30:32;70.35;;;36.00;;
69951;SDS011;60406;48.408;13.392;2024-01-10T17:35:33;75.35;;;38.33;;
69951;SDS011;60406;48.408;13.392;2024-01-10T17:40:34;68.95;;;35.75;;
69951;SDS011;60406;48.408;13.392;2024-01-10T17:45:35;71.28;;;36.45;;
69951;SDS011;60406;48.408;13.392;2024-01-10T17:50:36;74.97;;;34.33;;
69951;SDS011;60406;48.408;13.392;2024-01-10T17:55:37;63.13;;;34.65;;
69951;SDS011;60406;48.408;13.392;2024-01-10T18:00:37;75.20;;;37.40;;
69951;SDS011;60406;48.408;13.392;2024-01-10T18:05:39;75.93;;;37.90;;
69951;SDS011;60406;48.408;13.392;2024-01-10T18:10:39;78.07;;;39.42;;
69951;SDS011;60406;48.408;13.392;2024-01-10T18:15:41;73.97;;;38.15;;
69951;SDS011;60406;48.408;13.392;2024-01-10T18:20:42;79.32;;;41.08;;
69951;SDS011;60406;48.408;13.392;2024-01-10T18:25:45;69.93;;;36.50;;
69951;SDS011;60406;48.408;13.392;2024-01-10T18:30:45;65.20;;;36.00;;
69951;SDS011;60406;48.408;13.392;2024-01-10T18:35:46;75.78;;;36.72;;
69951;SDS011;60406;48.408;13.392;2024-01-10T18:40:47;65.10;;;37.33;;
69951;SDS011;60406;48.408;13.392;2024-01-10T18:45:49;79.25;;;39.97;;
69951;SDS011;60406;48.408;13.392;2024-01-10T18:50:50;80.85;;;40.85;;
69951;SDS011;60406;48.408;13.392;2024-01-10T18:55:50;79.63;;;39.30;;
69951;SDS011;60406;48.408;13.392;2024-01-10T19:00:51;86.28;;;41.33;;
69951;SDS011;60406;48.408;13.392;2024-01-10T19:05:52;82.70;;;43.60;;
69951;SDS011;60406;48.408;13.392;2024-01-10T19:10:53;77.28;;;38.28;;
69951;SDS011;60406;48.408;13.392;2024-01-10T19:15:54;76.70;;;38.33;;
69951;SDS011;60406;48.408;13.392;2024-01-10T19:20:55;73.63;;;38.20;;
69951;SDS011;60406;48.408;13.392;2024-01-10T19:25:56;66.88;;;35.88;;
69951;SDS011;60406;48.408;13.392;2024-01-10T19:30:57;84.80;;;39.92;;
69951;SDS011;60406;48.408;13.392;2024-01-10T19:35:57;75.25;;;40.50;;
69951;SDS011;60406;48.408;13.392;2024-01-10T19:40:58;71.13;;;38.97;;
69951;SDS011;60406;48.408;13.392;2024-01-10T19:45:59;85.00;;;41.35;;
69951;SDS011;60406;48.408;13.392;2024-01-10T19:51:00;85.45;;;41.25;;
69951;SDS011;60406;48.408;13.392;2024-01-10T19:56:01;82.90;;;40.75;;
69951;SDS011;60406;48.408;13.392;2024-01-10T20:01:02;83.18;;;41.92;;
69951;SDS011;60406;48.408;13.392;2024-01-10T20:06:03;84.35;;;42.45;;
69951;SDS011;60406;48.408;13.392;2024-01-10T20:11:04;79.68;;;41.45;;
69951;SDS011;60406;48.408;13.392;2024-01-10T20:16:06;73.45;;;39.47;;
69951;SDS011;60406;48.408;13.392;2024-01-10T20:21:07;78.13;;;40.83;;
69951;SDS011;60406;48.408;13.392;2024-01-10T20:26:08;76.50;;;42.47;;
69951;SDS011;60406;48.408;13.392;2024-01-10T20:31:09;86.88;;;43.13;;
69951;SDS011;60406;48.408;13.392;2024-01-10T20:36:09;82.72;;;42.38;;
69951;SDS011;60406;48.408;13.392;2024-01-10T20:41:10;80.05;;;40.40;;
69951;SDS011;60406;48.408;13.392;2024-01-10T20:46:13;90.05;;;43.03;;
69951;SDS011;60406;48.408;13.392;2024-01-10T20:51:14;87.47;;;42.03;;
69951;SDS011;60406;48.408;13.392;2024-01-10T20:56:15;88.88;;;42.55;;
69951;SDS011;60406;48.408;13.392;2024-01-10T21:01:15;85.13;;;40.88;;
69951;SDS011;60406;48.408;13.392;2024-01-10T21:06:16;91.00;;;40.95;;
69951;SDS011;60406;48.408;13.392;2024-01-10T21:11:17;95.43;;;43.97;;
69951;SDS011;60406;48.408;13.392;2024-01-10T21:16:18;89.28;;;43.88;;
69951;SDS011;60406;48.408;13.392;2024-01-10T21:21:19;85.22;;;42.47;;
69951;SDS011;60406;48.408;13.392;2024-01-10T21:26:20;91.38;;;43.42;;
69951;SDS011;60406;48.408;13.392;2024-01-10T21:31:21;86.20;;;43.50;;
69951;SDS011;60406;48.408;13.392;2024-01-10T21:36:22;86.53;;;41.45;;
69951;SDS011;60406;48.408;13.392;2024-01-10T21:41:22;80.40;;;43.15;;
69951;SDS011;60406;48.408;13.392;2024-01-10T21:46:23;86.22;;;41.45;;
69951;SDS011;60406;48.408;13.392;2024-01-10T21:51:24;81.60;;;41.72;;
69951;SDS011;60406;48.408;13.392;2024-01-10T21:56:25;86.03;;;42.78;;
69951;SDS011;60406;48.408;13.392;2024-01-10T22:01:26;84.57;;;43.00;;
69951;SDS011;60406;48.408;13.392;2024-01-10T22:06:27;83.65;;;40.45;;
69951;SDS011;60406;48.408;13.392;2024-01-10T22:11:28;82.25;;;41.33;;
69951;SDS011;60406;48.408;13.392;2024-01-10T22:16:28;87.50;;;42.20;;
69951;SDS011;60406;48.408;13.392;2024-01-10T22:21:29;159.73;;;65.85;;
69951;SDS011;60406;48.408;13.392;2024-01-10T22:26:30;170.43;;;69.07;;
69951;SDS011;60406;48.408;13.392;2024-01-10T22:31:31;138.43;;;61.28;;
69951;SDS011;60406;48.408;13.392;2024-01-10T22:36:32;132.35;;;61.65;;
69951;SDS011;60406;48.408;13.392;2024-01-10T22:41:33;125.57;;;59.20;;
69951;SDS011;60406;48.408;13.392;2024-01-10T22:46:34;115.15;;;54.45;;
69951;SDS011;60406;48.408;13.392;2024-01-10T22:51:35;113.88;;;55.63;;
69951;SDS011;60406;48.408;13.392;2024-01-10T22:56:35;111.10;;;52.20;;
69951;SDS011;60406;48.408;13.392;2024-01-10T23:01:36;109.15;;;49.90;;
69951;SDS011;60406;48.408;13.392;2024-01-10T23:06:37;97.35;;;47.85;;
69951;SDS011;60406;48.408;13.392;2024-01-10T23:11:38;100.97;;;49.42;;
69951;SDS011;60406;48.408;13.392;2024-01-10T23:16:39;100.25;;;50.08;;
69951;SDS011;60406;48.408;13.392;2024-01-10T23:21:40;102.75;;;50.72;;
69951;SDS011;60406;48.408;13.392;2024-01-10T23:26:41;114.90;;;54.40;;
69951;SDS011;60406;48.408;13.392;2024-01-10T23:31:42;103.78;;;48.35;;
69951;SDS011;60406;48.408;13.392;2024-01-10T23:36:42;95.97;;;47.35;;
69951;SDS011;60406;48.408;13.392;2024-01-10T23:41:43;93.38;;;48.50;;
69951;SDS011;60406;48.408;13.392;2024-01-10T23:46:44;96.50;;;45.40;;
69951;SDS011;60406;48.408;13.392;2024-01-10T23:51:45;91.40;;;44.83;;
69951;SDS011;60406;48.408;13.392;2024-01-10T23:56:46;91.30;;;40.75;;
